createdAt,value
2022-08-30T00:00:19.402Z,0.05
2022-08-30T00:04:58.044Z,0.05
2022-08-30T00:09:58.115Z,0.05
2022-08-30T00:14:55.955Z,0.05
2022-08-30T00:19:55.039Z,0.05
2022-08-30T00:24:54.553Z,0.05
2022-08-30T00:29:54.330Z,0.05
2022-08-30T00:34:54.167Z,0.05
2022-08-30T00:39:53.645Z,0.05
2022-08-30T00:44:53.695Z,0.05
2022-08-30T00:49:50.404Z,0.05
2022-08-30T00:54:49.963Z,0.05
2022-08-30T00:59:20.249Z,0.05
2022-08-30T01:04:20.237Z,0.05
2022-08-30T01:09:19.789Z,0.05
2022-08-30T01:14:18.988Z,0.05
2022-08-30T01:19:20.009Z,0.05
2022-08-30T01:24:18.032Z,0.05
2022-08-30T01:29:17.133Z,0.05
2022-08-30T01:34:17.117Z,0.05
2022-08-30T01:39:16.467Z,0.05
2022-08-30T01:44:15.933Z,0.05
2022-08-30T01:49:07.512Z,0.05
2022-08-30T01:54:06.901Z,0.05
2022-08-30T01:58:56.504Z,0.05
2022-08-30T02:03:52.383Z,0.05
2022-08-30T02:08:50.902Z,0.05
2022-08-30T02:13:51.172Z,0.05
2022-08-30T02:18:49.695Z,0.05
2022-08-30T02:23:48.686Z,0.05
2022-08-30T02:28:52.122Z,0.05
2022-08-30T02:33:47.622Z,0.05
2022-08-30T02:38:47.077Z,0.05
2022-08-30T02:43:44.773Z,0.05
2022-08-30T02:48:43.948Z,0.05
2022-08-30T02:53:42.944Z,0.05
2022-08-30T02:58:42.570Z,0.05
2022-08-30T03:00:04.770Z,0.05
2022-08-30T03:05:04.270Z,0.05
2022-08-30T03:10:33.507Z,0.05
2022-08-30T03:15:03.106Z,0.05
2022-08-30T03:20:02.015Z,0.05
2022-08-30T03:24:59.633Z,0.05
2022-08-30T03:29:58.612Z,0.05
2022-08-30T03:34:58.115Z,0.05
2022-08-30T03:39:58.647Z,0.05
2022-08-30T03:44:57.038Z,0.05
2022-08-30T03:49:56.543Z,0.05
2022-08-30T03:54:56.199Z,0.05
2022-08-30T03:59:18.840Z,0.05
2022-08-30T04:04:22.903Z,0.05
2022-08-30T04:09:16.686Z,0.05
2022-08-30T04:14:16.195Z,0.05
2022-08-30T04:19:16.835Z,0.06
2022-08-30T04:24:15.124Z,0.07
2022-08-30T04:29:14.483Z,0.08
2022-08-30T04:34:22.386Z,0.11
2022-08-30T04:39:21.614Z,0.16
2022-08-30T04:44:22.378Z,0.23
2022-08-30T04:49:18.642Z,0.29
2022-08-30T04:54:18.538Z,0.31
2022-08-30T04:58:57.989Z,0.39
2022-08-30T05:03:57.725Z,0.49
2022-08-30T05:08:58.150Z,0.6
2022-08-30T05:13:57.033Z,0.72
2022-08-30T05:18:55.730Z,0.85
2022-08-30T05:23:55.739Z,1
2022-08-30T05:28:52.362Z,1.15
2022-08-30T05:33:51.606Z,1.31
2022-08-30T05:38:51.194Z,1.47
2022-08-30T05:43:50.965Z,1.63
2022-08-30T05:48:50.469Z,1.8
2022-08-30T05:53:49.590Z,1.97
2022-08-30T05:58:50.476Z,2.16
2022-08-30T06:03:47.226Z,2.34
2022-08-30T06:08:46.209Z,2.53
2022-08-30T06:13:45.626Z,2.73
2022-08-30T06:18:44.991Z,2.93
2022-08-30T06:23:44.383Z,3.13
2022-08-30T06:28:43.955Z,3.32
2022-08-30T06:33:45.186Z,3.55
2022-08-30T06:38:43.145Z,3.8
2022-08-30T06:43:49.735Z,4.11
2022-08-30T06:48:46.342Z,4.36
2022-08-30T06:53:42.952Z,4.54
2022-08-30T06:58:39.330Z,4.63
2022-08-30T07:03:38.936Z,5
2022-08-30T07:08:39.615Z,5.4
2022-08-30T07:13:37.935Z,5.94
2022-08-30T07:18:36.886Z,6.14
2022-08-30T07:23:36.507Z,6.42
2022-08-30T07:28:36.362Z,6.77
2022-08-30T07:33:33.569Z,7.31
2022-08-30T07:38:32.907Z,7.46
2022-08-30T07:43:32.607Z,9.9
2022-08-30T07:48:31.751Z,9.9
2022-08-30T07:53:31.717Z,9.24
2022-08-30T07:58:31.465Z,9.81
2022-08-30T07:59:54.471Z,9.18
2022-08-30T08:04:54.414Z,9.25
2022-08-30T08:09:54.179Z,9.66
2022-08-30T08:14:51.185Z,12.61
2022-08-30T08:19:49.714Z,12.82
2022-08-30T08:24:49.009Z,13.61
2022-08-30T08:29:49.255Z,13.42
2022-08-30T08:34:48.582Z,13.22
2022-08-30T08:39:49.334Z,15.5
2022-08-30T08:49:47.638Z,11.62
2022-08-30T08:54:45.383Z,14.85
2022-08-30T08:59:14.404Z,15.9
2022-08-30T09:04:22.833Z,17.67
2022-08-30T09:09:20.855Z,19.26
2022-08-30T09:14:20.422Z,19.03
2022-08-30T09:19:21.624Z,17.88
2022-08-30T09:24:27.933Z,20.18
2022-08-30T09:29:18.523Z,20.64
2022-08-30T09:34:18.644Z,21.11
2022-08-30T09:39:18.225Z,21.34
2022-08-30T09:44:18.299Z,18.57
2022-08-30T09:49:17.478Z,19.93
2022-08-30T09:54:20.326Z,21.75
2022-08-30T09:58:57.069Z,21.58
2022-08-30T10:03:56.286Z,20.67
2022-08-30T10:08:55.128Z,21.5
2022-08-30T10:13:55.488Z,22.91
2022-08-30T10:18:53.796Z,21.96
2022-08-30T10:23:53.416Z,22.35
2022-08-30T10:28:54.537Z,24.31
2022-08-30T10:33:53.797Z,24.05
2022-08-30T10:38:51.675Z,24.84
2022-08-30T10:43:54.855Z,23.7
2022-08-30T10:48:49.464Z,19.54
2022-08-30T10:53:47.885Z,22.75
2022-08-30T10:58:46.772Z,25.82
2022-08-30T11:03:46.417Z,24.94
2022-08-30T11:08:46.235Z,25.12
2022-08-30T11:13:45.918Z,24.06
2022-08-30T11:18:52.174Z,21.81
2022-08-30T11:23:45.281Z,23.04
2022-08-30T11:28:45.244Z,19.8
2022-08-30T11:33:41.734Z,13.36
2022-08-30T11:38:40.693Z,10.88
2022-08-30T11:43:39.882Z,15.87
2022-08-30T11:48:55.648Z,19.3
2022-08-30T11:53:39.057Z,15.26
2022-08-30T11:58:37.777Z,18.36
2022-08-30T12:03:38.928Z,16.76
2022-08-30T12:08:38.727Z,19.49
2022-08-30T12:13:36.459Z,22.03
2022-08-30T12:18:35.229Z,24.95
2022-08-30T12:23:34.142Z,24.02
2022-08-30T12:28:33.756Z,23.3
2022-08-30T12:33:42.987Z,24.29
2022-08-30T12:38:34.727Z,23.35
2022-08-30T12:43:42.975Z,22.18
2022-08-30T12:48:31.229Z,22.39
2022-08-30T12:53:30.789Z,22.12
2022-08-30T12:58:28.491Z,22.13
2022-08-30T13:00:04.197Z,22.28
2022-08-30T13:04:49.466Z,21.46
2022-08-30T13:09:49.766Z,19.1
2022-08-30T13:14:48.289Z,20.7
2022-08-30T13:19:47.970Z,20.49
2022-08-30T13:24:47.701Z,20.65
2022-08-30T13:29:48.225Z,20.6
2022-08-30T13:34:46.426Z,20.11
2022-08-30T13:39:46.851Z,19.66
2022-08-30T13:44:48.401Z,17.41
2022-08-30T13:49:47.360Z,14.91
2022-08-30T13:54:42.793Z,13.12
2022-08-30T13:59:22.405Z,11.35
2022-08-30T14:04:21.587Z,13.3
2022-08-30T14:09:21.925Z,16.23
2022-08-30T14:14:44.714Z,15.64
2022-08-30T14:19:18.388Z,15
2022-08-30T14:24:24.831Z,14.54
2022-08-30T14:29:18.633Z,13.81
2022-08-30T14:34:17.590Z,12.39
2022-08-30T14:39:16.761Z,12.42
2022-08-30T14:44:16.051Z,11.8
2022-08-30T14:49:11.588Z,10.54
2022-08-30T14:54:06.264Z,9.37
2022-08-30T14:58:52.451Z,8.83
2022-08-30T15:03:56.007Z,9.27
2022-08-30T15:08:50.934Z,8.82
2022-08-30T15:13:54.826Z,8.81
2022-08-30T15:18:50.357Z,6.36
2022-08-30T15:23:50.258Z,6.55
2022-08-30T15:28:49.401Z,7.45
2022-08-30T15:33:47.864Z,7.46
2022-08-30T15:38:46.943Z,6.28
2022-08-30T15:43:47.657Z,5.67
2022-08-30T15:48:48.091Z,5.07
2022-08-30T15:53:46.104Z,4.3
2022-08-30T15:58:45.767Z,3.73
2022-08-30T16:03:44.618Z,4.09
2022-08-30T16:08:43.419Z,3.77
2022-08-30T16:13:50.947Z,3.63
2022-08-30T16:18:40.594Z,3.36
2022-08-30T16:23:39.681Z,3.05
2022-08-30T16:28:40.256Z,2.74
2022-08-30T16:33:45.526Z,2.19
2022-08-30T16:38:37.353Z,2.01
2022-08-30T16:43:37.297Z,2.01
2022-08-30T16:48:37.593Z,1.96
2022-08-30T16:53:36.786Z,1.81
2022-08-30T16:58:35.302Z,1.63
2022-08-30T16:59:56.572Z,1.57
2022-08-30T17:04:55.775Z,1.38
2022-08-30T17:09:54.897Z,1.15
2022-08-30T17:14:53.383Z,0.95
2022-08-30T17:19:54.504Z,0.78
2022-08-30T17:24:51.956Z,0.7
2022-08-30T17:29:50.997Z,0.67
2022-08-30T17:34:50.964Z,0.62
2022-08-30T17:39:47.831Z,0.57
2022-08-30T17:44:46.546Z,0.5
2022-08-30T17:49:46.187Z,0.41
2022-08-30T17:54:45.062Z,0.33
2022-08-30T17:58:59.231Z,0.31
2022-08-30T18:04:07.726Z,0.26
2022-08-30T18:08:57.500Z,0.19
2022-08-30T18:13:56.514Z,0.13
2022-08-30T18:18:59.480Z,0.1
2022-08-30T18:23:57.646Z,0.07
2022-08-30T18:28:52.154Z,0.06
2022-08-30T18:33:52.104Z,0.06
2022-08-30T18:38:51.249Z,0.06
2022-08-30T18:44:27.083Z,0.06
2022-08-30T18:48:49.592Z,0.06
2022-08-30T18:53:47.420Z,0.06
2022-08-30T18:58:46.969Z,0.06
2022-08-30T19:00:15.500Z,0.06
2022-08-30T19:05:08.091Z,0.05
2022-08-30T19:10:12.710Z,0.05
2022-08-30T19:15:14.628Z,0.06
2022-08-30T19:20:06.107Z,0.05
2022-08-30T19:25:05.723Z,0.05
2022-08-30T19:30:03.557Z,0.05
2022-08-30T19:35:01.733Z,0.06
2022-08-30T19:40:03.890Z,0.05
2022-08-30T19:45:01.352Z,0.05
2022-08-30T19:50:00.303Z,0.05
2022-08-30T19:54:59.843Z,0.05
2022-08-30T19:59:21.941Z,0.05
2022-08-30T20:04:20.104Z,0.05
2022-08-30T20:09:20.358Z,0.05
2022-08-30T20:14:17.088Z,0.05
2022-08-30T20:19:16.052Z,0.05
2022-08-30T20:24:16.093Z,0.06
2022-08-30T20:29:14.651Z,0.05
2022-08-30T20:34:22.402Z,0.05
2022-08-30T20:39:21.122Z,0.05
2022-08-30T20:44:20.959Z,0.06
2022-08-30T20:49:18.811Z,0.05
2022-08-30T20:54:18.585Z,0.05
2022-08-30T20:59:02.304Z,0.05
2022-08-30T21:04:02.805Z,0.05
2022-08-30T21:09:01.726Z,0.05
2022-08-30T21:14:01.309Z,0.05
2022-08-30T21:18:59.857Z,0.05
2022-08-30T21:23:59.128Z,0.05
2022-08-30T21:28:57.710Z,0.05
2022-08-30T21:33:56.604Z,0.05
2022-08-30T21:39:02.566Z,0.05
2022-08-30T21:43:54.925Z,0.05
2022-08-30T21:48:54.441Z,0.05
2022-08-30T21:53:53.487Z,0.05
2022-08-30T21:58:53.309Z,0.05
2022-08-30T22:00:15.499Z,0.05
2022-08-30T22:05:23.117Z,0.05
2022-08-30T22:10:20.013Z,0.05
2022-08-30T22:15:20.169Z,0.05
2022-08-30T22:20:21.353Z,0.05
2022-08-30T22:25:19.323Z,0.05
2022-08-30T22:30:19.012Z,0.05
2022-08-30T22:35:19.335Z,0.05
2022-08-30T22:40:16.918Z,0.05
2022-08-30T22:45:16.323Z,0.05
2022-08-30T22:50:16.094Z,0.05
2022-08-30T22:55:15.948Z,0.05
2022-08-30T22:59:37.076Z,0.05
2022-08-30T23:04:36.285Z,0.05
2022-08-30T23:09:35.244Z,0.05
2022-08-30T23:14:34.333Z,0.05
2022-08-30T23:19:33.129Z,0.05
2022-08-30T23:24:32.594Z,0.05
2022-08-30T23:29:32.284Z,0.05
2022-08-30T23:34:31.415Z,0.05
2022-08-30T23:39:31.252Z,0.05
2022-08-30T23:44:29.836Z,0.05
2022-08-30T23:49:28.740Z,0.05
2022-08-30T23:54:29.072Z,0.05
2022-08-30T23:59:03.793Z,0.05
